KHXD Airport (Hilton Head) Information

FAA: HXD - ICAO: KHXD

KHXD Airport Location

State South Carolina
County Beaufort
City Hilton Head Island
KHXD Airport is 3 miles east of Hilton Head Island, SC.
Latitude 32-13-28.1820N
Longitude 080-41-50.6430W
Elevation 19ft

KHXD Airport METARs

METAR KHXD 181250Z 27005KT 10SM CLR 01/M01 A3020
Altimeter 30.20"
Temperature 1.0°C (33.8°F)
Wind 270° at 5KT
Clouds Skies are clear.
Visibility 10.0mi
Time observed: 2022-01-18T12:50:00Z

KHXD Airport Details

Status Operational
Activation N/A
Ownership Public
Usage Public
Chart CHARLOTTE
ATC on-site Yes
Beacon schedule sunset-sunrise
Beacon color clear green

KHXD Airport Contacts

Owner BEAUFORT COUNTY
Owner address 120 BEACH CITY ROAD, HILTON HEAD ISLAND, SC 29926
Owner phone 843-255-2950
Manager JIM TAYLOR
Manager address 129 AIRPORT RD., GEORGETOWN, SC 29440
Manager phone 843-545-3638

KHXD Airport (Hilton Head) Radio Frequencies

KHXD (Airport) Radio Frequencies

UNICOM N/A
Common traffic advisory frequency (CTAF) 118.975